»·PEaware :: XACAM KSAN-KSBP

XACAM :: KSAN-KSBP

FLIGHT INFORMATION

Flight Status: Arrived
Operator: Unknown
More flights by this operator :: More flights under this callsign
Pilot: Rafael C. (24230)
Aircraft: BOEING 737-600
(B736)
More flights by this aircraft type
Origin: KSAN San Diego Intl-Lindbergh
United States
Destination: KSBP San Luis Co Regl
United States
More flights between these airports :: More routes between these airports
Route: PADRZ2 IKAYE RZS CADAB
File this flight plan on PilotEdge
Remarks:
Altitude:
(Current/Filed)
26,000ft
Speed:
(Current/Filed)
420kts
Departed: 19-Jul-23 05:22 PM
Arrived: 19-Jul-23 06:07 PM
Distance/Time
Traveled:
228nm/0:45
Distance/Time
To Go:
Arrived

Flight Plot

Page will automatically refresh every two minutes.

Flight plan parsing failed; only flown route is shown


Map Options




Map Legend


Flown Route
Filed Route
Departure Airport
Arrival Airport
Navaid (VOR, NDB)
Fix

Horizontal Profiles

Position Reports

Time Latitude Longitude Heading Altitude Ground
Speed
19-Jul-23 16:52 32.732206 -117.191117 290 24ft 0kts
19-Jul-23 16:53 32.732206 -117.191117 290 24ft 0kts
19-Jul-23 16:54 32.732206 -117.191117 290 24ft 0kts
19-Jul-23 16:55 32.732206 -117.191117 290 24ft 0kts
19-Jul-23 16:56 32.732206 -117.191117 290 24ft 0kts
19-Jul-23 16:57 32.732206 -117.191117 290 24ft 0kts
19-Jul-23 16:58 32.732206 -117.191117 290 24ft 0kts
19-Jul-23 16:59 32.732206 -117.191117 290 24ft 0kts
19-Jul-23 17:00 32.732206 -117.191117 290 24ft 0kts
19-Jul-23 17:01 32.732206 -117.191117 290 24ft 0kts
19-Jul-23 17:02 32.732206 -117.191117 290 24ft 0kts
19-Jul-23 17:03 32.732206 -117.191117 290 24ft 0kts
19-Jul-23 17:04 32.732206 -117.191117 290 24ft 0kts
19-Jul-23 17:05 32.732206 -117.191117 290 24ft 0kts
19-Jul-23 17:06 32.732206 -117.191117 290 24ft 0kts
19-Jul-23 17:07 32.732206 -117.191117 290 24ft 0kts
19-Jul-23 17:08 32.732170 -117.191002 291 27ft 0kts
19-Jul-23 17:09 32.732170 -117.191002 291 24ft 0kts
19-Jul-23 17:10 32.732166 -117.190991 293 27ft 0kts
19-Jul-23 17:11 32.732166 -117.190991 293 27ft 0kts
19-Jul-23 17:12 32.732166 -117.190991 293 27ft 0kts
19-Jul-23 17:13 32.732166 -117.190991 293 27ft 0kts
19-Jul-23 17:14 32.732166 -117.190991 293 27ft 0kts
19-Jul-23 17:15 32.732323 -117.190750 90 22ft 0kts
19-Jul-23 17:16 32.732614 -117.190357 60 24ft 5kts
19-Jul-23 17:17 32.731348 -117.184787 106 24ft 23kts
19-Jul-23 17:18 32.729665 -117.177834 105 18ft 20kts
19-Jul-23 17:19 32.729550 -117.176644 70 19ft 0kts
19-Jul-23 17:20 32.729786 -117.175923 55 21ft 7kts
19-Jul-23 17:21 32.733972 -117.191279 286 115ft 141kts
19-Jul-23 17:22 32.754567 -117.236007 303 2362ft 193kts
19-Jul-23 17:23 32.791001 -117.303059 302 4249ft 265kts
19-Jul-23 17:24 32.836366 -117.375853 306 7365ft 282kts
19-Jul-23 17:25 32.885711 -117.451953 306 10316ft 301kts
19-Jul-23 17:26 32.942518 -117.540294 306 12161ft 350kts
19-Jul-23 17:27 33.002560 -117.633960 306 14778ft 363kts
19-Jul-23 17:28 33.064137 -117.729830 309 15021ft 366kts
19-Jul-23 17:29 33.143249 -117.810392 318 17575ft 382kts
19-Jul-23 17:30 33.223952 -117.895827 313 20183ft 388kts
19-Jul-23 17:31 33.299969 -117.987916 313 22017ft 390kts
19-Jul-23 17:32 33.375857 -118.079072 313 22038ft 385kts
19-Jul-23 17:33 33.451596 -118.169906 313 22056ft 386kts
19-Jul-23 17:34 33.527176 -118.260764 312 22067ft 386kts
19-Jul-23 17:35 33.603049 -118.352216 312 22061ft 386kts
19-Jul-23 17:36 33.678594 -118.443514 312 22011ft 385kts
19-Jul-23 17:37 33.754046 -118.534943 312 22018ft 384kts
19-Jul-23 17:38 33.829160 -118.626204 312 22020ft 384kts
19-Jul-23 17:39 33.904179 -118.717596 312 22021ft 384kts
19-Jul-23 17:40 33.979146 -118.809168 312 22024ft 383kts
19-Jul-23 17:41 34.053828 -118.900641 312 22036ft 383kts
19-Jul-23 17:42 34.128471 -118.992305 312 22032ft 383kts
19-Jul-23 17:43 34.186835 -119.097642 297 22028ft 377kts
19-Jul-23 17:44 34.239007 -119.207612 297 22033ft 377kts
19-Jul-23 17:45 34.291972 -119.317360 297 22027ft 377kts
19-Jul-23 17:46 34.344105 -119.425470 297 21877ft 367kts
19-Jul-23 17:47 34.394645 -119.530660 297 20381ft 357kts
19-Jul-23 17:48 34.443862 -119.633406 298 18735ft 350kts
19-Jul-23 17:49 34.492497 -119.735209 298 16971ft 343kts
19-Jul-23 17:50 34.554220 -119.819770 316 15384ft 336kts
19-Jul-23 17:51 34.624233 -119.894918 316 13777ft 333kts
19-Jul-23 17:52 34.692532 -119.968833 316 12134ft 325kts
19-Jul-23 17:53 34.759688 -120.041763 316 10547ft 320kts
19-Jul-23 17:54 34.822375 -120.109953 316 9607ft 290kts
19-Jul-23 17:55 34.881296 -120.174233 316 9011ft 267kts
19-Jul-23 17:56 34.933791 -120.231614 316 7813ft 258kts
19-Jul-23 17:57 34.991076 -120.294362 317 5868ft 281kts
19-Jul-23 17:58 35.048089 -120.356898 316 5019ft 259kts
19-Jul-23 17:59 35.095204 -120.408632 315 4777ft 198kts
19-Jul-23 18:00 35.129513 -120.451201 302 3874ft 166kts
19-Jul-23 18:01 35.154273 -120.495175 303 3162ft 156kts
19-Jul-23 18:02 35.176609 -120.534399 303 2446ft 135kts
19-Jul-23 18:03 35.197943 -120.571883 304 1588ft 130kts
19-Jul-23 18:04 35.218746 -120.608391 306 848ft 129kts
19-Jul-23 18:05 35.238181 -120.642513 304 192ft 93kts
19-Jul-23 18:06 35.241403 -120.646885 41 176ft 0kts
19-Jul-23 18:07 35.240813 -120.645220 125 181ft 13kts
19-Jul-23 18:08 35.238694 -120.641732 123 200ft 12kts
19-Jul-23 18:09 35.238423 -120.640159 80 197ft 0kts
19-Jul-23 18:10 35.238423 -120.640159 80 197ft 0kts

Navigation Log

Ident Type
Flight plan parsing failed, navigation log unavailable